Time;durP1;ratioP1;P1;durP2;ratioP2;P2;SDS_P1;SDS_P2;PMS_P1;PMS_P2;Temp;Humidity;BMP_temperature;BMP_pressure;BME280_temperature;BME280_humidity;BME280_pressure;Samples;Min_cycle;Max_cycle;Signal;HPM_P1;HPM_P2
2024/03/13 00:01:02;;;;;;;25.25;16.52;;;8.30;99.90;;;;;;5110331;28;20474;-61
2024/03/13 00:03:29;;;;;;;25.95;17.70;;;8.30;99.90;;;;;;5110125;28;20219;-61
2024/03/13 00:05:56;;;;;;;25.83;16.50;;;8.30;99.90;;;;;;5110168;28;20208;-62
2024/03/13 00:08:23;;;;;;;22.13;16.73;;;8.30;99.90;;;;;;5110166;28;20688;-61
2024/03/13 00:10:50;;;;;;;24.43;16.10;;;8.30;99.90;;;;;;5109259;28;20470;-61
2024/03/13 00:13:17;;;;;;;22.80;15.77;;;8.30;99.90;;;;;;5110403;28;20481;-62
2024/03/13 00:15:44;;;;;;;21.88;16.83;;;8.20;99.90;;;;;;5110962;28;20453;-60
2024/03/13 00:18:14;;;;;;;20.30;14.93;;;8.20;99.90;;;;;;5111100;28;20222;-61
2024/03/13 00:20:42;;;;;;;20.50;15.32;;;8.20;99.90;;;;;;5110071;28;20205;-60
2024/03/13 00:23:09;;;;;;;15.80;11.93;;;8.20;99.90;;;;;;5111098;28;20767;-61
2024/03/13 00:25:36;;;;;;;16.15;14.07;;;8.20;99.90;;;;;;5110616;28;20220;-61
2024/03/13 00:28:03;;;;;;;13.33;11.17;;;8.20;99.90;;;;;;5110529;28;20206;-61
2024/03/13 00:30:30;;;;;;;15.88;11.65;;;8.20;99.90;;;;;;5110914;28;20448;-62
2024/03/13 00:32:57;;;;;;;22.20;15.95;;;8.20;99.90;;;;;;5111048;28;20255;-59
2024/03/13 00:35:25;;;;;;;17.70;12.93;;;8.10;99.90;;;;;;5111127;28;20311;-62
2024/03/13 00:37:52;;;;;;;14.93;11.50;;;8.10;99.90;;;;;;5111342;28;20233;-61
2024/03/13 00:40:19;;;;;;;15.98;12.68;;;8.10;99.90;;;;;;5111226;28;20214;-60
2024/03/13 00:42:46;;;;;;;14.57;12.00;;;8.00;99.90;;;;;;5115516;28;20196;-61
2024/03/13 00:45:13;;;;;;;12.93;11.18;;;8.00;99.90;;;;;;5115244;28;20472;-61
2024/03/13 00:47:40;;;;;;;14.03;12.23;;;8.00;99.90;;;;;;5115258;28;20740;-61
2024/03/13 00:50:09;;;;;;;16.98;10.60;;;8.00;99.90;;;;;;5114907;28;20441;-61
2024/03/13 00:52:38;;;;;;;15.50;10.80;;;7.90;99.90;;;;;;5115144;28;20606;-61
2024/03/13 00:55:09;;;;;;;15.40;10.40;;;7.90;99.90;;;;;;5114874;28;20466;-61
2024/03/13 00:57:36;;;;;;;14.52;10.00;;;7.90;99.90;;;;;;5115141;28;20438;-61
2024/03/13 01:00:04;;;;;;;14.00;10.35;;;7.90;99.90;;;;;;5114894;28;20208;-60
2024/03/13 01:02:33;;;;;;;15.30;10.10;;;7.90;99.90;;;;;;5114661;28;20337;-61
2024/03/13 01:05:00;;;;;;;11.02;9.95;;;7.90;99.90;;;;;;5112303;28;20303;-60
2024/03/13 01:07:27;;;;;;;11.98;8.98;;;7.90;99.90;;;;;;5111909;28;20200;-62
2024/03/13 01:09:55;;;;;;;13.10;9.70;;;7.90;99.90;;;;;;5114367;28;20674;-60
2024/03/13 01:12:22;;;;;;;10.30;7.40;;;7.90;99.90;;;;;;5114573;28;21020;-60
2024/03/13 01:14:49;;;;;;;6.63;5.90;;;7.90;99.90;;;;;;5114384;28;20971;-61
2024/03/13 01:17:17;;;;;;;12.00;6.78;;;7.90;99.90;;;;;;5114235;28;20200;-61
2024/03/13 01:19:44;;;;;;;7.03;6.30;;;7.80;99.90;;;;;;5114241;28;20211;-62
2024/03/13 01:22:12;;;;;;;8.98;6.68;;;7.80;99.90;;;;;;5114336;28;20222;-61
2024/03/13 01:24:39;;;;;;;8.33;7.03;;;7.90;99.90;;;;;;5114630;28;20228;-60
2024/03/13 01:27:07;;;;;;;10.52;7.43;;;7.90;99.90;;;;;;5114530;28;20441;-61
2024/03/13 01:29:38;;;;;;;7.90;7.10;;;7.90;99.90;;;;;;5114389;28;20204;-62
2024/03/13 01:32:05;;;;;;;9.52;8.57;;;7.90;99.90;;;;;;5114092;28;20702;-61
2024/03/13 01:34:32;;;;;;;11.25;6.50;;;7.80;99.90;;;;;;5114012;28;20228;-61
2024/03/13 01:39:43;;;;;;;4.88;4.43;;;7.80;99.90;;;;;;5114089;28;20203;-61
2024/03/13 01:56:21;;;;;;;7.50;4.93;;;7.80;99.90;;;;;;5113968;28;20204;-60
2024/03/13 01:58:51;;;;;;;5.40;4.93;;;7.80;99.90;;;;;;5113919;28;20446;-61
2024/03/13 02:04:03;;;;;;;4.60;3.83;;;7.80;99.90;;;;;;5113532;28;20924;-60
2024/03/13 02:06:31;;;;;;;7.18;4.18;;;7.80;99.90;;;;;;5112555;28;20204;-62
2024/03/13 02:08:58;;;;;;;3.72;3.35;;;7.80;99.90;;;;;;5113797;28;20212;-59
2024/03/13 02:11:25;;;;;;;3.55;3.05;;;7.70;99.90;;;;;;5113462;28;20205;-60
2024/03/13 02:13:55;;;;;;;6.85;4.20;;;7.70;99.90;;;;;;5113361;28;20224;-60
2024/03/13 02:16:22;;;;;;;5.38;3.35;;;7.70;99.90;;;;;;5113386;28;20220;-60
2024/03/13 02:18:50;;;;;;;3.60;3.30;;;7.70;99.90;;;;;;5113476;28;20204;-61
2024/03/13 02:21:17;;;;;;;4.82;3.10;;;7.70;99.90;;;;;;5113290;28;20257;-60
2024/03/13 02:23:44;;;;;;;6.90;5.40;;;7.70;99.90;;;;;;5113328;28;20597;-61
2024/03/13 02:26:11;;;;;;;5.43;3.22;;;7.60;99.90;;;;;;5112299;28;20208;-61
2024/03/13 02:28:38;;;;;;;2.95;2.70;;;7.60;99.90;;;;;;5112071;28;20577;-61
2024/03/13 02:31:06;;;;;;;3.10;2.83;;;7.60;99.90;;;;;;5111916;28;20295;-61
2024/03/13 02:33:33;;;;;;;4.80;2.77;;;7.60;99.90;;;;;;5111783;28;20734;-61
2024/03/13 02:36:01;;;;;;;4.60;3.83;;;7.50;99.90;;;;;;5112091;28;20442;-61
2024/03/13 02:38:28;;;;;;;2.88;2.63;;;7.50;99.90;;;;;;5111934;28;20216;-61
2024/03/13 02:40:55;;;;;;;2.92;2.63;;;7.40;99.90;;;;;;5111225;28;20674;-60
2024/03/13 02:43:22;;;;;;;3.00;2.70;;;7.40;99.90;;;;;;5111599;28;20291;-60
2024/03/13 02:45:49;;;;;;;5.47;2.88;;;7.30;99.90;;;;;;5111995;28;20205;-61
2024/03/13 02:48:16;;;;;;;4.20;2.80;;;7.30;99.90;;;;;;5111372;28;21017;-61
2024/03/13 02:50:43;;;;;;;3.97;3.47;;;7.20;99.90;;;;;;5093475;28;20567;-62
2024/03/13 02:53:10;;;;;;;6.53;4.28;;;7.20;99.90;;;;;;5094316;28;20311;-60
2024/03/13 02:55:37;;;;;;;7.45;4.22;;;7.20;99.90;;;;;;5094393;28;20224;-61
2024/03/13 02:58:04;;;;;;;4.88;4.13;;;7.20;99.90;;;;;;5094528;28;20673;-61
2024/03/13 03:00:31;;;;;;;4.18;3.88;;;7.20;99.90;;;;;;5094220;28;20757;-62
2024/03/13 03:02:58;;;;;;;5.72;4.07;;;7.10;99.90;;;;;;5094560;28;20214;-62
2024/03/13 03:05:25;;;;;;;6.68;4.35;;;7.10;99.90;;;;;;5093704;28;20324;-62
2024/03/13 03:07:52;;;;;;;6.13;4.20;;;7.10;99.90;;;;;;5094265;28;20200;-60
2024/03/13 03:10:19;;;;;;;5.75;5.35;;;7.10;99.90;;;;;;5093973;28;20208;-62
2024/03/13 03:12:46;;;;;;;4.75;4.22;;;7.00;99.90;;;;;;5094201;28;20771;-60
2024/03/13 03:15:13;;;;;;;6.70;4.45;;;7.00;99.90;;;;;;5094329;28;20320;-61
2024/03/13 03:17:40;;;;;;;5.07;4.55;;;7.00;99.90;;;;;;5094403;28;20287;-61
2024/03/13 03:20:07;;;;;;;4.68;4.28;;;7.00;99.90;;;;;;5093948;28;20683;-61
2024/03/13 03:22:34;;;;;;;6.38;5.28;;;6.90;99.90;;;;;;5094243;28;20742;-61
2024/03/13 03:25:01;;;;;;;5.72;5.07;;;6.90;99.90;;;;;;5093861;28;20231;-61
2024/03/13 03:27:28;;;;;;;7.63;5.65;;;6.90;99.90;;;;;;5094296;28;20800;-60
2024/03/13 03:29:55;;;;;;;6.55;5.95;;;6.90;99.90;;;;;;5093981;28;20294;-61
2024/03/13 03:32:22;;;;;;;7.45;6.38;;;6.90;99.90;;;;;;5094037;28;20204;-60
2024/03/13 03:34:49;;;;;;;7.70;6.00;;;6.90;99.90;;;;;;5093777;28;20736;-61
2024/03/13 03:37:16;;;;;;;10.93;6.80;;;6.90;99.90;;;;;;5094018;28;20555;-62
2024/03/13 03:39:43;;;;;;;6.65;6.05;;;6.90;99.90;;;;;;5093624;28;20255;-63
2024/03/13 03:42:10;;;;;;;8.68;7.13;;;6.90;99.90;;;;;;5093908;28;20208;-61
2024/03/13 03:44:37;;;;;;;10.48;7.07;;;6.90;99.90;;;;;;5093966;28;20228;-60
2024/03/13 03:47:04;;;;;;;8.88;7.95;;;6.90;99.90;;;;;;5093911;28;20207;-59
2024/03/13 03:49:31;;;;;;;13.45;9.20;;;6.90;99.90;;;;;;5093764;28;20291;-61
2024/03/13 03:51:58;;;;;;;6.90;4.90;;;6.90;99.90;;;;;;5093513;28;20207;-60
2024/03/13 03:54:25;;;;;;;7.00;5.97;;;7.00;99.90;;;;;;5093593;28;20867;-62
2024/03/13 03:56:52;;;;;;;7.78;6.40;;;7.00;99.90;;;;;;5093670;28;20200;-62
2024/03/13 03:59:19;;;;;;;9.40;6.93;;;7.00;99.90;;;;;;5093808;28;20636;-62
2024/03/13 04:01:45;;;;;;;9.02;6.25;;;7.00;99.90;;;;;;5093462;28;20204;-61
2024/03/13 04:04:13;;;;;;;6.50;5.50;;;7.00;99.90;;;;;;5093348;28;20259;-61
2024/03/13 04:06:41;;;;;;;11.27;5.95;;;7.00;99.90;;;;;;5093663;28;20450;-62
2024/03/13 04:09:15;;;;;;;5.95;5.35;;;7.00;99.90;;;;;;5093922;28;20265;-61
2024/03/13 04:11:42;;;;;;;9.13;5.78;;;7.00;99.90;;;;;;5094404;28;20203;-62
2024/03/13 04:14:10;;;;;;;6.28;4.78;;;7.00;99.90;;;;;;5093245;28;20655;-61
2024/03/13 04:16:37;;;;;;;8.98;5.45;;;7.00;99.90;;;;;;5093375;28;20215;-62
2024/03/13 04:19:06;;;;;;;7.80;5.97;;;7.00;99.90;;;;;;5092395;28;20200;-60
2024/03/13 04:21:33;;;;;;;7.68;5.47;;;7.10;99.90;;;;;;5093090;28;20677;-61
2024/03/13 04:24:00;;;;;;;6.18;5.35;;;7.00;99.90;;;;;;5093297;28;20216;-61
2024/03/13 04:26:28;;;;;;;5.88;4.30;;;7.10;99.90;;;;;;5093292;28;20200;-61
2024/03/13 04:28:57;;;;;;;7.95;5.80;;;7.10;99.90;;;;;;5093406;28;20868;-61
2024/03/13 04:31:25;;;;;;;6.28;5.25;;;7.10;99.90;;;;;;5093410;28;20291;-61
2024/03/13 04:33:52;;;;;;;4.72;4.25;;;7.10;99.90;;;;;;5093301;28;20228;-61
2024/03/13 04:36:18;;;;;;;6.10;5.07;;;7.10;99.90;;;;;;5093361;28;20200;-60
2024/03/13 04:38:50;;;;;;;7.63;5.10;;;7.10;99.90;;;;;;5093086;28;20297;-61
2024/03/13 04:41:18;;;;;;;5.00;4.47;;;7.10;99.90;;;;;;5093869;28;20299;-60
2024/03/13 04:43:45;;;;;;;7.45;4.65;;;7.10;99.90;;;;;;5093474;28;20600;-62
2024/03/13 04:46:16;;;;;;;6.43;4.53;;;7.10;99.90;;;;;;5093363;28;20205;-61
2024/03/13 04:48:43;;;;;;;5.65;4.78;;;7.10;99.90;;;;;;5093531;28;20632;-61
2024/03/13 04:51:10;;;;;;;6.22;4.68;;;7.10;99.90;;;;;;5092991;28;20211;-61
2024/03/13 04:53:37;;;;;;;5.22;4.18;;;7.10;99.90;;;;;;5092882;28;20647;-62
2024/03/13 04:56:04;;;;;;;5.72;4.93;;;7.10;99.90;;;;;;5093042;28;20212;-61
2024/03/13 04:58:31;;;;;;;5.40;4.88;;;7.10;99.90;;;;;;5093320;28;20232;-62
2024/03/13 05:00:58;;;;;;;8.40;5.85;;;7.10;99.90;;;;;;5092890;28;20215;-62
2024/03/13 05:03:25;;;;;;;6.80;5.03;;;7.10;99.90;;;;;;5092878;28;20216;-62
2024/03/13 05:05:52;;;;;;;8.00;5.47;;;7.10;99.90;;;;;;5093108;28;20201;-61
2024/03/13 05:08:19;;;;;;;6.07;5.05;;;7.10;99.90;;;;;;5092935;28;20315;-62
2024/03/13 05:10:46;;;;;;;5.90;5.40;;;7.10;99.90;;;;;;5092837;28;20209;-59
2024/03/13 05:13:13;;;;;;;6.55;5.93;;;7.10;99.90;;;;;;5093010;28;20220;-62
2024/03/13 05:15:40;;;;;;;7.05;6.35;;;7.10;99.90;;;;;;5093017;28;20248;-60
2024/03/13 05:18:07;;;;;;;7.75;5.78;;;7.20;99.90;;;;;;5092841;28;20211;-61
2024/03/13 05:20:34;;;;;;;7.10;6.22;;;7.10;99.90;;;;;;5092577;28;20240;-59
2024/03/13 05:23:01;;;;;;;9.18;5.72;;;7.10;99.90;;;;;;5092724;28;20206;-62
2024/03/13 05:25:28;;;;;;;7.80;6.55;;;7.10;99.90;;;;;;5092950;28;20232;-61
2024/03/13 05:27:56;;;;;;;7.55;5.30;;;7.10;99.90;;;;;;5094080;28;20596;-61
2024/03/13 05:30:24;;;;;;;7.28;5.60;;;7.10;99.90;;;;;;5096360;28;20601;-59
2024/03/13 05:32:51;;;;;;;9.60;6.95;;;7.10;99.90;;;;;;5096402;28;20204;-62
2024/03/13 05:35:19;;;;;;;5.22;4.72;;;7.10;99.90;;;;;;5096127;28;20311;-61
2024/03/13 05:37:46;;;;;;;8.52;6.82;;;7.10;99.90;;;;;;5096287;28;20204;-60
2024/03/13 05:40:16;;;;;;;9.55;7.70;;;7.10;99.90;;;;;;5095868;28;20704;-60
2024/03/13 05:42:43;;;;;;;6.32;5.70;;;7.10;99.90;;;;;;5096865;28;20227;-61
2024/03/13 05:45:10;;;;;;;10.48;7.78;;;7.10;99.90;;;;;;5095965;28;20312;-61
2024/03/13 05:47:37;;;;;;;8.80;7.05;;;7.10;99.90;;;;;;5096039;28;20203;-59
2024/03/13 05:50:04;;;;;;;7.88;7.13;;;7.10;99.90;;;;;;5095640;28;20200;-61
2024/03/13 05:52:31;;;;;;;6.75;5.38;;;7.10;99.90;;;;;;5095811;28;20209;-61
2024/03/13 05:54:58;;;;;;;7.50;6.18;;;7.10;99.90;;;;;;5095897;28;20230;-60
2024/03/13 05:57:25;;;;;;;7.70;6.47;;;7.20;99.90;;;;;;5095936;28;20657;-62
2024/03/13 05:59:52;;;;;;;10.38;7.25;;;7.20;99.90;;;;;;5095439;28;20294;-63
2024/03/13 06:02:19;;;;;;;8.93;7.53;;;7.20;99.90;;;;;;5095473;28;20292;-61
2024/03/13 06:04:46;;;;;;;7.45;6.25;;;7.20;99.90;;;;;;5095853;28;20545;-61
2024/03/13 06:07:13;;;;;;;9.38;7.05;;;7.20;99.90;;;;;;5095945;28;20204;-62
2024/03/13 06:09:40;;;;;;;7.82;6.65;;;7.20;99.90;;;;;;5095786;28;20204;-60
2024/03/13 06:12:07;;;;;;;6.80;5.75;;;7.20;99.90;;;;;;5095441;28;20208;-62
2024/03/13 06:14:34;;;;;;;8.73;7.82;;;7.20;99.90;;;;;;5095485;28;20611;-62
2024/03/13 06:17:01;;;;;;;7.32;5.75;;;7.20;99.90;;;;;;5095411;28;20295;-61
2024/03/13 06:19:29;;;;;;;8.35;6.13;;;7.20;99.90;;;;;;5095383;28;20209;-62
2024/03/13 06:21:56;;;;;;;11.13;7.93;;;7.10;99.90;;;;;;5095535;28;20261;-60
2024/03/13 06:24:30;;;;;;;8.20;6.32;;;7.10;99.90;;;;;;5095343;28;20243;-61
2024/03/13 06:27:00;;;;;;;9.63;7.50;;;7.10;99.90;;;;;;5096310;28;20312;-61
2024/03/13 06:32:11;;;;;;;14.45;7.20;;;7.20;99.90;;;;;;5097740;28;20222;-62
2024/03/13 06:34:39;;;;;;;13.50;9.23;;;7.20;99.90;;;;;;5095083;28;20606;-61
2024/03/13 06:37:06;;;;;;;12.68;9.82;;;7.20;99.90;;;;;;5095260;28;20200;-61
2024/03/13 06:39:32;;;;;;;9.50;7.53;;;7.30;99.90;;;;;;5094877;28;20204;-61
2024/03/13 06:41:59;;;;;;;10.52;7.55;;;7.30;99.90;;;;;;5094629;28;20588;-61
2024/03/13 06:44:26;;;;;;;14.15;9.60;;;7.40;99.90;;;;;;5094774;28;20231;-61
2024/03/13 06:46:53;;;;;;;11.20;8.20;;;7.40;99.90;;;;;;5095086;28;20230;-62
2024/03/13 06:49:20;;;;;;;15.45;12.05;;;7.50;99.90;;;;;;5094892;28;20220;-62
2024/03/13 06:51:47;;;;;;;12.57;10.05;;;7.60;99.90;;;;;;5094446;28;20208;-60
2024/03/13 06:54:14;;;;;;;17.35;10.48;;;7.60;99.90;;;;;;5094462;28;20235;-62
2024/03/13 06:56:41;;;;;;;11.50;10.10;;;7.70;99.90;;;;;;5094546;28;20592;-60
2024/03/13 06:59:08;;;;;;;13.97;11.60;;;7.80;99.90;;;;;;5094778;28;20442;-60
2024/03/13 07:01:36;;;;;;;12.32;10.23;;;7.90;99.90;;;;;;5094326;28;20448;-61
2024/03/13 07:04:03;;;;;;;11.98;10.25;;;7.90;99.90;;;;;;5090904;28;20733;-61
2024/03/13 07:06:30;;;;;;;9.55;8.18;;;8.00;99.90;;;;;;5111148;28;20200;-62
2024/03/13 07:08:57;;;;;;;9.68;8.68;;;8.10;99.90;;;;;;5108648;28;20218;-62
2024/03/13 07:11:24;;;;;;;7.83;6.80;;;8.20;99.90;;;;;;5110691;28;20227;-62
2024/03/13 07:13:51;;;;;;;9.80;8.57;;;8.30;99.90;;;;;;5110782;28;20492;-61
2024/03/13 07:16:19;;;;;;;8.90;6.67;;;8.40;99.90;;;;;;5111187;28;20232;-61
2024/03/13 07:18:46;;;;;;;9.20;7.30;;;8.40;99.90;;;;;;5093843;28;20490;-61
2024/03/13 07:21:13;;;;;;;8.77;6.40;;;8.50;99.90;;;;;;5093930;28;20441;-59
2024/03/13 07:23:40;;;;;;;7.27;6.30;;;8.50;99.90;;;;;;5093674;28;20497;-61
2024/03/13 07:26:08;;;;;;;8.50;7.03;;;8.50;99.90;;;;;;5094046;28;20864;-62
2024/03/13 07:28:38;;;;;;;8.03;6.40;;;8.60;99.90;;;;;;5110880;28;20523;-61
2024/03/13 07:31:05;;;;;;;8.03;6.80;;;8.70;99.90;;;;;;5093663;28;20950;-62
2024/03/13 07:33:32;;;;;;;8.30;6.97;;;8.80;99.90;;;;;;5093847;28;20450;-61
2024/03/13 07:35:59;;;;;;;7.90;7.13;;;8.80;99.90;;;;;;5094043;28;20528;-62
2024/03/13 07:38:26;;;;;;;11.77;7.63;;;8.90;99.90;;;;;;5093734;28;21131;-62
2024/03/13 07:40:53;;;;;;;8.63;6.67;;;9.00;99.90;;;;;;5093406;28;20529;-61
2024/03/13 07:43:20;;;;;;;7.77;6.87;;;9.00;99.90;;;;;;5094003;28;20965;-62
2024/03/13 07:45:47;;;;;;;6.50;5.87;;;9.10;99.90;;;;;;5093693;28;20438;-61
2024/03/13 07:48:14;;;;;;;8.20;6.17;;;9.10;99.90;;;;;;5093732;28;20464;-61
2024/03/13 07:50:40;;;;;;;6.90;6.10;;;9.10;99.90;;;;;;5092863;28;20434;-62
2024/03/13 07:53:08;;;;;;;8.63;6.60;;;9.10;99.90;;;;;;5093757;28;20493;-62
2024/03/13 07:55:36;;;;;;;7.50;6.77;;;9.20;99.90;;;;;;5092280;28;20562;-62
2024/03/13 07:58:03;;;;;;;6.57;6.00;;;9.30;99.90;;;;;;5109517;28;20466;-62
2024/03/13 08:00:35;;;;;;;10.13;7.10;;;9.30;99.90;;;;;;5109458;28;20819;-62
2024/03/13 08:03:02;;;;;;;7.73;5.90;;;9.50;99.90;;;;;;5109643;28;20460;-62
2024/03/13 08:05:29;;;;;;;7.67;6.63;;;9.60;99.90;;;;;;5108994;28;20558;-62
2024/03/13 08:07:56;;;;;;;6.80;6.20;;;9.70;99.90;;;;;;5108692;28;20446;-60
2024/03/13 08:10:25;;;;;;;6.77;6.10;;;9.80;99.90;;;;;;5108119;28;20442;-62
2024/03/13 08:12:52;;;;;;;8.03;6.63;;;9.90;99.90;;;;;;5106709;28;20442;-61
2024/03/13 08:15:19;;;;;;;5.90;5.20;;;9.90;99.90;;;;;;5109382;28;20492;-62
2024/03/13 08:17:46;;;;;;;5.97;5.50;;;10.00;99.90;;;;;;5100791;28;20445;-63
2024/03/13 08:20:14;;;;;;;8.67;6.07;;;10.00;99.90;;;;;;5109505;28;20450;-62
2024/03/13 08:22:42;;;;;;;5.83;4.90;;;10.10;99.90;;;;;;5109367;28;20442;-62
2024/03/13 08:25:11;;;;;;;7.13;5.57;;;10.10;99.90;;;;;;5093912;28;21151;-62
2024/03/13 08:27:38;;;;;;;5.83;5.33;;;10.10;99.90;;;;;;5093032;28;20450;-62
2024/03/13 08:30:06;;;;;;;6.30;5.70;;;10.10;99.90;;;;;;5109064;28;20444;-62
2024/03/13 08:32:33;;;;;;;5.83;5.23;;;10.10;99.90;;;;;;5102772;28;20504;-63
2024/03/13 08:35:00;;;;;;;6.83;5.17;;;10.20;99.90;;;;;;5101072;28;20884;-62
2024/03/13 08:37:27;;;;;;;6.60;5.30;;;10.10;99.90;;;;;;5104252;28;20437;-62
2024/03/13 08:39:54;;;;;;;8.00;5.57;;;10.20;99.90;;;;;;5100396;28;20450;-62
2024/03/13 08:42:22;;;;;;;6.23;5.40;;;10.30;99.90;;;;;;5108829;28;20438;-62
2024/03/13 08:44:49;;;;;;;5.20;4.67;;;10.20;99.90;;;;;;5100107;28;20469;-61
2024/03/13 08:47:18;;;;;;;4.30;3.90;;;10.30;99.90;;;;;;5102457;28;21033;-62
2024/03/13 08:49:45;;;;;;;5.00;4.53;;;10.30;99.90;;;;;;5100908;28;20450;-62
2024/03/13 08:52:12;;;;;;;5.63;5.07;;;10.30;99.90;;;;;;5091357;28;20448;-61
2024/03/13 08:54:41;;;;;;;4.90;4.50;;;10.40;99.90;;;;;;5099479;28;21104;-61
2024/03/13 08:57:09;;;;;;;4.73;4.33;;;10.40;99.90;;;;;;5104757;28;20476;-62
2024/03/13 08:59:36;;;;;;;5.27;4.67;;;10.50;99.90;;;;;;5103013;28;20441;-62
2024/03/13 09:02:05;;;;;;;4.13;3.80;;;10.60;99.90;;;;;;5109212;28;20446;-62
2024/03/13 09:04:32;;;;;;;5.40;4.90;;;10.60;99.90;;;;;;5116604;27;21081;-63
2024/03/13 09:07:00;;;;;;;5.17;4.57;;;10.70;99.90;;;;;;5101612;28;20530;-62
2024/03/13 09:09:28;;;;;;;4.33;3.80;;;10.80;99.90;;;;;;5095446;28;20461;-62
2024/03/13 09:11:54;;;;;;;4.90;4.40;;;10.90;99.90;;;;;;5103709;28;20791;-62
2024/03/13 09:14:23;;;;;;;5.27;4.87;;;11.00;99.90;;;;;;5095353;28;20496;-62
2024/03/13 09:16:51;;;;;;;4.90;4.47;;;11.10;99.90;;;;;;5110279;28;20442;-62
2024/03/13 09:19:18;;;;;;;4.60;4.10;;;11.10;99.90;;;;;;5098756;28;20438;-62
2024/03/13 09:21:47;;;;;;;4.57;3.67;;;11.10;99.90;;;;;;5111674;28;20535;-63
2024/03/13 09:24:15;;;;;;;5.40;3.70;;;11.20;99.90;;;;;;5111984;28;20500;-62
2024/03/13 09:26:42;;;;;;;7.27;4.47;;;11.20;99.90;;;;;;5111183;28;20511;-62
2024/03/13 09:29:09;;;;;;;3.97;3.67;;;11.30;99.90;;;;;;5109687;28;20552;-62
2024/03/13 09:31:40;;;;;;;3.60;3.30;;;11.40;99.90;;;;;;5094657;28;20447;-62
2024/03/13 09:34:10;;;;;;;4.30;3.90;;;11.40;99.90;;;;;;5099418;28;20589;-62
2024/03/13 09:36:37;;;;;;;4.20;3.70;;;11.50;99.90;;;;;;5082366;28;20474;-62
2024/03/13 09:39:06;;;;;;;4.47;3.87;;;11.50;99.90;;;;;;5111351;28;20441;-63
2024/03/13 09:41:33;;;;;;;3.67;3.33;;;11.60;99.90;;;;;;5097501;28;21089;-62
2024/03/13 09:44:01;;;;;;;3.50;3.03;;;11.50;99.90;;;;;;5109841;28;20458;-63
2024/03/13 09:46:28;;;;;;;3.13;2.90;;;11.60;99.90;;;;;;5111272;28;20438;-62
2024/03/13 09:48:57;;;;;;;3.73;3.43;;;11.60;99.90;;;;;;5111678;28;20819;-62
2024/03/13 09:51:23;;;;;;;2.87;2.67;;;11.60;99.90;;;;;;5105941;28;20867;-62
2024/03/13 09:53:50;;;;;;;2.70;2.50;;;11.60;99.90;;;;;;5100403;28;20473;-63
2024/03/13 09:56:18;;;;;;;2.20;2.10;;;11.70;99.90;;;;;;5111331;28;20859;-63
2024/03/13 09:58:49;;;;;;;3.33;2.70;;;11.70;99.90;;;;;;5110881;28;20447;-63
2024/03/13 10:01:16;;;;;;;2.53;2.10;;;11.70;99.90;;;;;;5111329;28;20529;-62
2024/03/13 10:03:45;;;;;;;3.27;2.97;;;11.70;99.90;;;;;;5110936;28;20900;-61
2024/03/13 10:06:11;;;;;;;3.30;3.00;;;11.70;99.90;;;;;;5110384;28;20998;-63
2024/03/13 10:08:40;;;;;;;3.60;2.83;;;11.70;99.90;;;;;;5103259;28;20434;-63
2024/03/13 10:11:08;;;;;;;2.37;2.20;;;11.70;99.90;;;;;;5101954;28;20529;-62
2024/03/13 10:13:36;;;;;;;2.10;2.00;;;11.70;99.90;;;;;;5093519;28;20438;-63
2024/03/13 10:16:03;;;;;;;2.57;2.37;;;11.80;99.90;;;;;;5111277;28;20485;-62
2024/03/13 10:18:29;;;;;;;3.30;2.10;;;11.80;99.90;;;;;;5111177;28;20433;-62
2024/03/13 10:20:57;;;;;;;2.87;2.67;;;11.90;99.90;;;;;;5110867;28;20453;-63
2024/03/13 10:23:24;;;;;;;3.10;2.27;;;12.00;99.90;;;;;;5111115;28;20438;-62
2024/03/13 10:25:51;;;;;;;2.90;2.37;;;12.10;99.90;;;;;;5111444;28;20470;-63
2024/03/13 10:28:23;;;;;;;3.00;2.13;;;12.10;99.90;;;;;;5111205;27;20437;-64
2024/03/13 10:30:51;;;;;;;2.17;1.97;;;12.20;99.90;;;;;;5111862;27;20450;-63
2024/03/13 10:33:18;;;;;;;3.07;2.77;;;12.30;99.90;;;;;;5127091;27;20953;-63
2024/03/13 10:35:45;;;;;;;2.60;2.40;;;12.30;99.90;;;;;;5102499;27;20897;-62
2024/03/13 10:38:13;;;;;;;2.43;1.90;;;12.20;99.90;;;;;;5119408;27;20438;-63
2024/03/13 10:40:40;;;;;;;2.67;2.00;;;12.30;99.90;;;;;;5109394;27;20977;-63
2024/03/13 10:43:09;;;;;;;1.40;1.30;;;12.40;99.90;;;;;;5114346;27;20433;-63
2024/03/13 10:45:36;;;;;;;1.50;1.40;;;12.60;99.90;;;;;;5124496;27;20461;-63
2024/03/13 10:48:06;;;;;;;2.87;1.67;;;12.70;99.90;;;;;;5104046;27;20444;-63
2024/03/13 10:50:33;;;;;;;3.13;2.17;;;12.80;99.90;;;;;;5116332;27;20453;-62
2024/03/13 10:53:01;;;;;;;1.53;1.43;;;12.90;99.90;;;;;;5110728;27;20438;-63
2024/03/13 10:55:28;;;;;;;1.87;1.77;;;12.90;99.90;;;;;;5090034;28;20482;-62
2024/03/13 10:57:55;;;;;;;1.30;1.20;;;12.90;99.90;;;;;;5104459;28;20441;-63
2024/03/13 11:00:22;;;;;;;1.90;1.80;;;12.80;99.90;;;;;;5089455;28;20447;-62
2024/03/13 11:02:50;;;;;;;1.83;1.73;;;12.80;99.90;;;;;;5096953;28;20952;-63
2024/03/13 11:05:17;;;;;;;1.90;1.80;;;12.80;99.90;;;;;;5126743;27;20451;-62
2024/03/13 11:07:45;;;;;;;2.87;2.67;;;12.80;99.90;;;;;;5095189;27;20470;-62
2024/03/13 11:10:13;;;;;;;1.10;1.10;;;12.90;99.90;;;;;;5093705;28;20517;-63
2024/03/13 11:12:41;;;;;;;1.90;1.37;;;12.80;99.90;;;;;;5110130;28;20952;-62
2024/03/13 11:15:08;;;;;;;2.03;1.93;;;12.90;99.90;;;;;;5112315;27;20600;-62
2024/03/13 11:17:35;;;;;;;1.93;1.83;;;12.90;99.90;;;;;;5123797;27;20438;-63
2024/03/13 11:20:06;;;;;;;1.63;1.63;;;13.00;99.90;;;;;;5103374;27;20444;-62
2024/03/13 11:22:32;;;;;;;1.70;1.60;;;13.00;99.90;;;;;;5116010;27;20951;-63
2024/03/13 11:25:01;;;;;;;2.10;1.60;;;13.00;99.90;;;;;;5109247;28;20921;-62
2024/03/13 11:27:28;;;;;;;2.40;1.50;;;12.90;99.90;;;;;;5089424;28;20443;-60
2024/03/13 11:29:55;;;;;;;1.80;1.70;;;12.90;99.90;;;;;;5103792;28;20736;-63
2024/03/13 11:32:23;;;;;;;2.47;2.27;;;13.00;99.90;;;;;;5092189;28;21139;-63
2024/03/13 11:34:50;;;;;;;1.77;1.60;;;13.00;99.90;;;;;;5092608;28;20458;-62
2024/03/13 11:37:17;;;;;;;2.20;1.83;;;13.10;99.90;;;;;;5109962;27;20444;-62
2024/03/13 11:39:44;;;;;;;2.57;1.80;;;13.10;99.90;;;;;;5088250;28;21001;-64
2024/03/13 11:42:12;;;;;;;1.70;1.60;;;13.20;99.90;;;;;;5101009;28;20441;-62
2024/03/13 11:44:42;;;;;;;1.90;1.80;;;13.20;99.90;;;;;;5088035;28;20467;-63
2024/03/13 11:47:11;;;;;;;2.27;2.17;;;13.30;99.90;;;;;;5095546;27;20490;-62
2024/03/13 11:49:38;;;;;;;1.93;1.83;;;13.40;99.90;;;;;;5122282;27;20478;-62
2024/03/13 11:52:12;;;;;;;1.87;1.80;;;13.50;99.90;;;;;;5107701;27;20437;-62
2024/03/13 11:54:40;;;;;;;1.63;1.53;;;13.60;99.90;;;;;;5101821;28;20463;-61
2024/03/13 11:57:07;;;;;;;2.10;2.00;;;13.70;99.90;;;;;;5097599;27;20485;-62
2024/03/13 11:59:41;;;;;;;2.87;1.90;;;13.70;99.90;;;;;;5097617;28;21029;-62
2024/03/13 12:02:30;;;;;;;2.20;2.10;;;13.90;99.90;;;;;;5098295;28;20438;-62
2024/03/13 12:05:03;;;;;;;2.40;2.23;;;14.00;99.90;;;;;;5108672;27;20902;-62
2024/03/13 12:07:33;;;;;;;2.20;2.10;;;14.00;99.90;;;;;;5087352;28;20984;-62
2024/03/13 12:10:00;;;;;;;2.63;2.43;;;14.00;99.90;;;;;;5103269;28;20453;-62
2024/03/13 12:12:27;;;;;;;2.20;2.10;;;14.00;99.90;;;;;;5086275;28;20442;-62
2024/03/13 12:14:55;;;;;;;3.30;2.40;;;14.00;99.90;;;;;;5098794;28;20466;-63
2024/03/13 12:17:21;;;;;;;2.70;2.60;;;14.00;99.90;;;;;;5108131;28;20482;-62
2024/03/13 12:19:48;;;;;;;3.00;2.70;;;14.10;99.90;;;;;;5098638;28;20461;-62
2024/03/13 12:22:15;;;;;;;2.33;2.23;;;14.00;99.90;;;;;;5101720;28;20442;-62
2024/03/13 12:24:43;;;;;;;4.13;2.33;;;13.90;99.90;;;;;;5099062;28;20885;-62
2024/03/13 12:27:10;;;;;;;2.50;2.40;;;14.00;99.90;;;;;;5107261;28;20926;-62
2024/03/13 12:29:38;;;;;;;2.97;2.77;;;14.00;99.90;;;;;;5090545;28;20449;-63
2024/03/13 12:32:08;;;;;;;2.23;2.10;;;14.00;99.90;;;;;;5099511;28;20450;-63
2024/03/13 12:34:35;;;;;;;2.67;2.40;;;13.90;99.90;;;;;;5100359;28;20877;-62
2024/03/13 12:37:05;;;;;;;2.37;2.27;;;13.80;99.90;;;;;;5099726;27;20490;-62
2024/03/13 12:39:35;;;;;;;3.03;2.83;;;13.80;99.90;;;;;;5092401;28;20447;-63
2024/03/13 12:42:04;;;;;;;2.60;2.40;;;13.70;99.90;;;;;;5110474;28;20994;-62
2024/03/13 12:44:31;;;;;;;2.97;2.67;;;13.70;99.90;;;;;;5100421;28;20515;-63
2024/03/13 12:46:58;;;;;;;2.60;2.30;;;13.70;99.90;;;;;;5103315;28;20445;-62
2024/03/13 12:49:25;;;;;;;2.90;2.70;;;13.80;99.90;;;;;;5092823;28;20446;-62
2024/03/13 12:51:56;;;;;;;2.83;2.37;;;13.80;99.90;;;;;;5095320;28;20534;-62
2024/03/13 12:54:26;;;;;;;2.50;2.30;;;13.90;99.90;;;;;;5090694;28;20477;-62
2024/03/13 12:56:53;;;;;;;2.50;2.30;;;13.90;99.90;;;;;;5101089;27;20481;-62
2024/03/13 12:59:22;;;;;;;2.40;2.30;;;13.90;99.90;;;;;;5091918;28;20454;-62
2024/03/13 13:01:50;;;;;;;2.93;2.70;;;13.90;99.90;;;;;;5094786;28;20443;-62
2024/03/13 13:04:18;;;;;;;2.70;2.50;;;14.00;99.90;;;;;;5104416;27;20477;-62
2024/03/13 13:06:48;;;;;;;3.20;3.00;;;14.00;99.90;;;;;;5110389;28;20438;-62
2024/03/13 13:09:15;;;;;;;2.53;2.33;;;14.00;99.90;;;;;;5093804;28;20934;-62
2024/03/13 13:11:42;;;;;;;3.20;2.90;;;13.90;99.90;;;;;;5100572;28;20859;-63
2024/03/13 13:14:09;;;;;;;2.80;2.60;;;13.90;99.90;;;;;;5109817;28;20469;-62